createdAt,value
2023-05-18T00:00:41.491Z,57.36
2023-05-18T00:02:43.680Z,57.60
2023-05-18T00:04:46.156Z,57.26
2023-05-18T00:06:48.281Z,57.71
2023-05-18T00:08:50.337Z,56.97
2023-05-18T00:10:52.297Z,56.61
2023-05-18T00:12:54.356Z,56.59
2023-05-18T00:14:56.662Z,55.70
2023-05-18T00:17:02.052Z,54.64
2023-05-18T00:19:04.297Z,53.64
2023-05-18T00:21:06.613Z,52.72
2023-05-18T00:23:10.786Z,52.52
2023-05-18T00:25:12.864Z,52.33
2023-05-18T00:27:15.842Z,52.13
2023-05-18T00:29:18.133Z,52.78
2023-05-18T00:31:20.197Z,52.58
2023-05-18T00:33:22.900Z,52.18
2023-05-18T00:35:24.964Z,52.33
2023-05-18T00:37:27.096Z,52.81
2023-05-18T00:39:29.344Z,52.64
2023-05-18T00:41:31.832Z,52.39
2023-05-18T00:43:33.979Z,52.05
2023-05-18T00:45:36.432Z,52.02
2023-05-18T00:47:38.562Z,52.16
2023-05-18T00:49:41.680Z,51.79
2023-05-18T00:51:44.585Z,51.29
2023-05-18T00:53:47.783Z,50.85
2023-05-18T00:55:50.190Z,50.71
2023-05-18T00:57:52.337Z,50.29
2023-05-18T00:59:56.529Z,51.19
2023-05-18T01:01:58.981Z,51.61
2023-05-18T01:04:02.502Z,51.53
2023-05-18T01:06:06.903Z,51.57
2023-05-18T01:08:10.284Z,51.53
2023-05-18T01:10:13.793Z,51.26
2023-05-18T01:12:21.432Z,50.85
2023-05-18T01:14:25.225Z,50.57
2023-05-18T01:16:34.489Z,50.81
2023-05-18T01:18:46.528Z,50.30
2023-05-18T01:20:57.708Z,50.38
2023-05-18T01:23:03.296Z,50.11
2023-05-18T01:25:19.618Z,50.03
2023-05-18T01:27:24.900Z,50.26
2023-05-18T01:29:29.415Z,50.48
2023-05-18T01:31:37.176Z,50.36
2023-05-18T01:33:41.015Z,50.89
2023-05-18T01:35:48.802Z,51.17
2023-05-18T01:37:51.204Z,50.95
2023-05-18T01:39:53.217Z,51.45
2023-05-18T01:42:03.902Z,51.95
2023-05-18T01:44:12.763Z,52.19
2023-05-18T01:46:25.606Z,52.98
2023-05-18T01:48:27.843Z,52.81
2023-05-18T01:50:38.076Z,52.68
2023-05-18T01:52:42.760Z,52.78
2023-05-18T01:54:46.537Z,52.90
2023-05-18T01:56:51.441Z,52.79
2023-05-18T01:58:54.149Z,52.77
2023-05-18T02:00:56.835Z,52.53
2023-05-18T02:02:59.120Z,52.45
2023-05-18T02:05:01.473Z,52.91
2023-05-18T02:07:03.919Z,52.81
2023-05-18T02:09:06.065Z,52.86
2023-05-18T02:11:08.106Z,52.82
2023-05-18T02:13:10.377Z,52.76
2023-05-18T02:15:12.604Z,52.07
2023-05-18T02:17:15.266Z,51.37
2023-05-18T02:19:17.787Z,52.06
2023-05-18T02:21:19.880Z,51.87
2023-05-18T02:23:21.861Z,51.60
2023-05-18T02:25:24.063Z,51.38
2023-05-18T02:27:26.131Z,51.71
2023-05-18T02:29:28.274Z,51.81
2023-05-18T02:31:31.190Z,51.38
2023-05-18T02:33:40.292Z,51.23
2023-05-18T02:35:42.384Z,51.37
2023-05-18T02:37:44.489Z,51.25
2023-05-18T02:39:46.623Z,51.29
2023-05-18T02:41:48.727Z,51.23
2023-05-18T02:43:50.778Z,50.71
2023-05-18T02:45:52.930Z,50.75
2023-05-18T02:47:55.114Z,50.54
2023-05-18T02:49:57.569Z,50.30
2023-05-18T02:51:59.632Z,50.18
2023-05-18T02:54:01.851Z,50.40
2023-05-18T02:56:04.076Z,50.47
2023-05-18T02:58:06.252Z,51.02
2023-05-18T03:00:11.914Z,51.11
2023-05-18T03:02:14.673Z,50.73
2023-05-18T03:04:17.170Z,51.70
2023-05-18T03:06:23.499Z,52.04
2023-05-18T03:08:27.274Z,52.07
2023-05-18T03:10:29.385Z,52.24
2023-05-18T03:12:31.405Z,52.19
2023-05-18T03:14:33.440Z,52.05
2023-05-18T03:16:39.042Z,52.24
2023-05-18T03:18:41.406Z,52.19
2023-05-18T03:20:44.541Z,52.42
2023-05-18T03:22:46.524Z,51.70
2023-05-18T03:24:51.332Z,51.46
2023-05-18T03:26:55.340Z,51.56
2023-05-18T03:28:59.308Z,51.64
2023-05-18T03:31:01.407Z,51.98
2023-05-18T03:33:03.650Z,52.09
2023-05-18T03:35:06.605Z,52.32
2023-05-18T03:37:08.607Z,52.45
2023-05-18T03:39:10.595Z,52.12
2023-05-18T03:41:13.134Z,52.48
2023-05-18T03:43:15.249Z,52.48
2023-05-18T03:45:18.468Z,52.54
2023-05-18T03:47:22.349Z,52.22
2023-05-18T03:49:24.369Z,52.34
2023-05-18T03:51:27.035Z,52.42
2023-05-18T03:53:29.730Z,52.45
2023-05-18T03:55:31.820Z,52.58
2023-05-18T03:57:34.168Z,52.74
2023-05-18T03:59:36.218Z,53.46
2023-05-18T04:01:38.337Z,53.33
2023-05-18T04:03:41.004Z,53.59
2023-05-18T04:05:43.769Z,53.94
2023-05-18T04:07:46.464Z,53.64
2023-05-18T04:09:50.057Z,53.84
2023-05-18T04:11:52.158Z,53.71
2023-05-18T04:13:54.166Z,53.92
2023-05-18T04:15:58.576Z,53.94
2023-05-18T04:18:02.217Z,54.03
2023-05-18T04:20:13.443Z,53.88
2023-05-18T04:22:16.416Z,54.20
2023-05-18T04:24:19.711Z,54.40
2023-05-18T04:26:22.296Z,54.17
2023-05-18T04:28:24.333Z,54.40
2023-05-18T04:30:29.798Z,54.26
2023-05-18T04:32:36.498Z,54.20
2023-05-18T04:34:38.754Z,54.35
2023-05-18T04:36:42.945Z,54.46
2023-05-18T04:38:44.948Z,54.18
2023-05-18T04:40:46.930Z,54.06
2023-05-18T04:42:49.334Z,53.93
2023-05-18T04:44:52.382Z,54.38
2023-05-18T04:46:55.486Z,54.18
2023-05-18T04:48:58.238Z,53.86
2023-05-18T04:51:00.341Z,54.29
2023-05-18T04:53:03.539Z,54.42
2023-05-18T04:55:06.340Z,54.21
2023-05-18T04:57:08.537Z,54.38
2023-05-18T04:59:11.028Z,53.92
2023-05-18T05:01:15.460Z,54.36
2023-05-18T05:03:17.637Z,54.31
2023-05-18T05:05:20.008Z,54.38
2023-05-18T05:07:21.980Z,54.30
2023-05-18T05:09:23.991Z,54.82
2023-05-18T05:11:25.988Z,54.78
2023-05-18T05:13:28.279Z,54.95
2023-05-18T05:15:30.985Z,54.96
2023-05-18T05:17:33.295Z,55.19
2023-05-18T05:19:35.298Z,54.73
2023-05-18T05:21:37.316Z,54.77
2023-05-18T05:23:39.366Z,54.30
2023-05-18T05:25:41.428Z,54.65
2023-05-18T05:27:43.496Z,54.33
2023-05-18T05:29:47.463Z,54.75
2023-05-18T05:31:49.635Z,54.58
2023-05-18T05:33:51.735Z,54.70
2023-05-18T05:35:54.043Z,55.05
2023-05-18T05:37:56.119Z,54.92
2023-05-18T05:39:58.119Z,55.14
2023-05-18T05:42:00.211Z,55.24
2023-05-18T05:44:02.247Z,54.90
2023-05-18T05:46:04.409Z,54.68
2023-05-18T05:48:06.891Z,54.24
2023-05-18T05:50:09.123Z,54.30
2023-05-18T05:52:12.238Z,53.80
2023-05-18T05:54:14.553Z,53.77
2023-05-18T05:56:16.532Z,54.36
2023-05-18T05:58:18.675Z,54.30
2023-05-18T06:00:21.153Z,53.82
2023-05-18T06:02:23.251Z,54.09
2023-05-18T06:04:25.344Z,54.28
2023-05-18T06:06:28.472Z,54.49
2023-05-18T06:08:31.085Z,54.17
2023-05-18T06:10:33.282Z,53.66
2023-05-18T06:12:35.485Z,53.42
2023-05-18T06:14:37.546Z,52.96
2023-05-18T06:16:39.729Z,52.93
2023-05-18T06:18:41.886Z,52.82
2023-05-18T06:20:43.937Z,52.85
2023-05-18T06:22:45.968Z,52.47
2023-05-18T06:24:48.468Z,52.21
2023-05-18T06:26:51.245Z,50.38
2023-05-18T06:28:53.408Z,50.26
2023-05-18T06:30:55.601Z,50.38
2023-05-18T06:32:57.719Z,50.19
2023-05-18T06:34:59.852Z,49.88
2023-05-18T06:37:01.838Z,49.92
2023-05-18T06:39:05.369Z,49.89
2023-05-18T06:41:07.693Z,49.87
2023-05-18T06:43:09.752Z,49.60
2023-05-18T06:45:12.657Z,50.07
2023-05-18T06:47:14.699Z,50.35
2023-05-18T06:49:16.883Z,50.23
2023-05-18T06:51:19.618Z,50.22
2023-05-18T06:53:23.557Z,49.63
2023-05-18T06:55:31.793Z,49.80
2023-05-18T06:57:34.346Z,49.68
2023-05-18T06:59:36.562Z,49.42
2023-05-18T07:01:38.803Z,49.29
2023-05-18T07:03:41.210Z,48.78
2023-05-18T07:05:43.517Z,48.82
2023-05-18T07:07:46.082Z,49.02
2023-05-18T07:09:49.990Z,48.93
2023-05-18T07:11:52.068Z,48.37
2023-05-18T07:13:54.198Z,48.40
2023-05-18T07:15:56.376Z,48.17
2023-05-18T07:17:58.969Z,47.82
2023-05-18T07:20:04.247Z,47.74
2023-05-18T07:22:07.896Z,47.73
2023-05-18T07:24:10.183Z,47.62
2023-05-18T07:26:12.351Z,47.42
2023-05-18T07:28:14.531Z,47.21
2023-05-18T07:30:16.874Z,47.84
2023-05-18T07:32:19.391Z,47.25
2023-05-18T07:34:21.664Z,47.13
2023-05-18T07:36:24.497Z,47.21
2023-05-18T07:38:26.861Z,46.73
2023-05-18T07:40:29.670Z,46.81
2023-05-18T07:42:34.128Z,46.61
2023-05-18T07:44:36.441Z,46.88
2023-05-18T07:46:39.053Z,46.67
2023-05-18T07:48:41.409Z,45.77
2023-05-18T07:50:43.725Z,45.93
2023-05-18T07:52:45.820Z,46.45
2023-05-18T07:54:48.498Z,46.16
2023-05-18T07:56:50.686Z,46.16
2023-05-18T07:58:55.025Z,46.45
2023-05-18T08:00:57.249Z,45.94
2023-05-18T08:03:01.153Z,46.92
2023-05-18T08:05:04.285Z,47.65
2023-05-18T08:07:06.778Z,48.05
2023-05-18T08:09:09.240Z,48.39
2023-05-18T08:11:11.428Z,48.27
2023-05-18T08:13:14.838Z,47.96
2023-05-18T08:15:17.012Z,47.61
2023-05-18T08:17:20.623Z,48.17
2023-05-18T08:19:23.173Z,48.09
2023-05-18T08:21:25.467Z,47.89
2023-05-18T08:23:27.687Z,47.67
2023-05-18T08:28:10.240Z,47.75
2023-05-18T08:30:13.292Z,48.13
2023-05-18T08:32:15.513Z,48.37
2023-05-18T08:34:18.872Z,48.00
2023-05-18T08:36:21.512Z,48.07
2023-05-18T08:38:23.693Z,48.04
2023-05-18T08:40:36.226Z,48.16
2023-05-18T08:42:50.575Z,47.87
2023-05-18T08:45:03.084Z,47.38
2023-05-18T08:47:11.562Z,47.43
2023-05-18T08:49:17.320Z,47.45
2023-05-18T08:51:21.476Z,47.50
2023-05-18T08:53:25.854Z,47.18
2023-05-18T08:55:29.959Z,47.06
2023-05-18T08:57:35.327Z,46.74
2023-05-18T08:59:42.575Z,46.13
2023-05-18T09:01:45.069Z,46.03
2023-05-18T09:03:49.863Z,46.05
2023-05-18T09:06:09.289Z,45.87
2023-05-18T09:08:12.910Z,46.03
2023-05-18T09:10:16.530Z,45.67
2023-05-18T09:12:21.700Z,45.05
2023-05-18T09:14:27.302Z,44.51
2023-05-18T09:16:30.700Z,44.54
2023-05-18T09:18:33.029Z,44.45
2023-05-18T09:20:35.611Z,44.47
2023-05-18T09:22:41.842Z,44.17
2023-05-18T09:24:44.416Z,43.84
2023-05-18T09:26:47.127Z,43.46
2023-05-18T09:28:54.221Z,43.36
2023-05-18T09:30:56.457Z,42.78
2023-05-18T09:33:00.067Z,42.77
2023-05-18T09:35:06.840Z,42.08
2023-05-18T09:37:18.125Z,42.33
2023-05-18T09:39:23.562Z,42.33
2023-05-18T09:41:28.411Z,41.76
2023-05-18T09:43:30.657Z,41.11
2023-05-18T09:45:42.675Z,41.17
2023-05-18T09:47:45.361Z,41.26
2023-05-18T09:49:47.529Z,40.72
2023-05-18T09:51:49.968Z,41.20
2023-05-18T09:53:56.574Z,40.58
2023-05-18T09:56:13.528Z,40.48
2023-05-18T09:58:16.422Z,41.00
2023-05-18T10:00:22.835Z,40.21
2023-05-18T10:02:27.183Z,39.16
2023-05-18T10:04:35.714Z,38.26
2023-05-18T10:06:38.545Z,38.25
2023-05-18T10:08:43.060Z,37.89
2023-05-18T10:10:47.596Z,37.65
2023-05-18T10:13:02.304Z,38.05
2023-05-18T10:17:48.628Z,37.84
2023-05-18T10:19:54.602Z,38.00
2023-05-18T10:21:57.605Z,37.74
2023-05-18T10:24:04.320Z,38.72
2023-05-18T10:26:10.292Z,38.70
2023-05-18T10:28:17.104Z,38.63
2023-05-18T10:30:23.198Z,38.42
2023-05-18T10:32:32.307Z,38.33
2023-05-18T10:34:37.497Z,37.89
2023-05-18T10:36:40.607Z,37.29
2023-05-18T10:38:46.233Z,37.38
2023-05-18T10:40:50.906Z,36.73
2023-05-18T10:42:56.847Z,37.59
2023-05-18T10:45:02.158Z,36.74
2023-05-18T10:47:06.979Z,36.73
2023-05-18T10:49:14.115Z,36.67
2023-05-18T10:51:17.724Z,36.73
2023-05-18T10:53:24.805Z,36.11
2023-05-18T10:55:31.562Z,36.61
2023-05-18T10:57:48.953Z,35.72
2023-05-18T10:59:51.673Z,36.20
2023-05-18T11:01:59.430Z,36.02
2023-05-18T11:04:06.886Z,36.23
2023-05-18T11:06:11.289Z,36.20
2023-05-18T11:08:15.382Z,36.56
2023-05-18T11:10:18.769Z,35.79
2023-05-18T11:12:24.034Z,35.55
2023-05-18T11:14:29.064Z,35.65
2023-05-18T11:16:36.170Z,35.57
2023-05-18T11:18:43.277Z,36.17
2023-05-18T11:20:47.071Z,35.46
2023-05-18T11:22:55.739Z,36.11
2023-05-18T11:24:58.509Z,35.89
2023-05-18T11:27:06.293Z,36.06
2023-05-18T11:29:15.002Z,35.93
2023-05-18T11:31:19.075Z,36.07
2023-05-18T11:33:26.809Z,35.84
2023-05-18T11:35:39.590Z,36.02
2023-05-18T11:37:43.557Z,35.66
2023-05-18T11:42:02.018Z,35.85
2023-05-18T11:44:10.285Z,35.73
2023-05-18T11:46:19.147Z,36.07
2023-05-18T11:48:23.280Z,35.89
2023-05-18T11:50:26.049Z,35.77
2023-05-18T11:52:28.530Z,35.72
2023-05-18T11:54:37.076Z,35.41
2023-05-18T11:56:42.113Z,35.63
2023-05-18T11:58:45.255Z,36.44
2023-05-18T12:00:49.615Z,36.44
2023-05-18T12:02:53.198Z,35.78
2023-05-18T12:04:57.700Z,35.79
2023-05-18T12:07:04.685Z,35.51
2023-05-18T12:09:08.658Z,35.36
2023-05-18T12:11:13.882Z,35.92
2023-05-18T12:13:18.151Z,35.65
2023-05-18T12:15:26.885Z,35.85
2023-05-18T12:17:35.293Z,36.02
2023-05-18T12:19:39.619Z,35.84
2023-05-18T12:21:42.016Z,35.69
2023-05-18T12:23:44.563Z,35.98
2023-05-18T12:25:57.153Z,35.58
2023-05-18T12:27:59.940Z,35.68
2023-05-18T12:30:02.512Z,36.01
2023-05-18T12:32:07.619Z,35.73
2023-05-18T12:34:11.837Z,36.11
2023-05-18T12:36:15.223Z,34.69
2023-05-18T12:38:18.610Z,35.03
2023-05-18T12:40:21.631Z,34.69
2023-05-18T12:42:24.535Z,34.64
2023-05-18T12:44:28.260Z,34.59
2023-05-18T12:46:31.339Z,34.74
2023-05-18T12:48:38.262Z,34.59
2023-05-18T12:50:47.680Z,34.68
2023-05-18T12:52:50.823Z,34.69
2023-05-18T12:54:59.442Z,34.71
2023-05-18T12:57:08.022Z,34.07
2023-05-18T12:59:10.727Z,34.50
2023-05-18T13:01:13.430Z,34.36
2023-05-18T13:03:19.011Z,34.51
2023-05-18T13:05:35.143Z,34.86
2023-05-18T13:07:41.288Z,33.83
2023-05-18T13:09:47.639Z,34.27
2023-05-18T13:12:03.756Z,33.17
2023-05-18T13:14:11.390Z,32.82
2023-05-18T13:16:17.337Z,32.41
2023-05-18T13:18:20.453Z,32.87
2023-05-18T13:20:23.220Z,31.76
2023-05-18T13:22:26.508Z,31.76
2023-05-18T13:24:28.918Z,31.63
2023-05-18T13:26:31.562Z,31.16
2023-05-18T13:28:34.335Z,30.90
2023-05-18T13:30:37.866Z,30.83
2023-05-18T13:32:40.347Z,30.68
2023-05-18T13:34:43.396Z,30.89
2023-05-18T13:36:46.175Z,30.02
2023-05-18T13:38:49.102Z,30.24
2023-05-18T13:40:51.650Z,30.30
2023-05-18T13:42:55.982Z,30.44
2023-05-18T13:44:58.615Z,30.99
2023-05-18T13:47:01.571Z,30.54
2023-05-18T13:49:03.988Z,30.54
2023-05-18T13:51:07.297Z,30.71
2023-05-18T13:53:10.375Z,30.53
2023-05-18T13:55:12.848Z,30.90
2023-05-18T13:57:15.321Z,30.27
2023-05-18T13:59:19.814Z,30.25
2023-05-18T14:01:23.917Z,30.25
2023-05-18T14:03:27.063Z,29.77
2023-05-18T14:05:34.537Z,29.23
2023-05-18T14:07:38.657Z,30.08
2023-05-18T14:09:41.786Z,30.16
2023-05-18T14:11:44.429Z,30.09
2023-05-18T14:13:47.493Z,29.45
2023-05-18T14:15:49.852Z,29.27
2023-05-18T14:18:16.429Z,29.51
2023-05-18T14:20:25.741Z,29.44
2023-05-18T14:22:35.757Z,28.78
2023-05-18T14:24:57.623Z,28.63
2023-05-18T14:27:00.738Z,28.35
2023-05-18T14:29:12.758Z,28.00
2023-05-18T14:31:15.907Z,27.98
2023-05-18T14:33:18.439Z,28.02
2023-05-18T14:35:36.487Z,27.84
2023-05-18T14:37:43.056Z,27.80
2023-05-18T14:40:07.156Z,28.83
2023-05-18T14:42:18.690Z,30.07
2023-05-18T14:44:31.954Z,30.92
2023-05-18T14:46:51.243Z,31.53
2023-05-18T14:49:03.078Z,31.13
2023-05-18T14:51:05.697Z,31.96
2023-05-18T14:53:09.854Z,31.33
2023-05-18T14:55:12.635Z,30.96
2023-05-18T14:57:28.705Z,30.88
2023-05-18T14:59:31.705Z,30.24
2023-05-18T15:01:34.309Z,31.55
2023-05-18T15:03:40.110Z,30.33
2023-05-18T15:05:49.875Z,30.57
2023-05-18T15:07:52.750Z,29.29
2023-05-18T15:09:56.362Z,29.86
2023-05-18T15:11:59.179Z,31.39
2023-05-18T15:14:01.882Z,31.89
2023-05-18T15:16:15.139Z,31.90
2023-05-18T15:18:18.686Z,30.11
2023-05-18T15:20:21.706Z,29.50
2023-05-18T15:22:25.444Z,30.26
2023-05-18T15:24:28.320Z,30.59
2023-05-18T15:28:50.726Z,31.69
2023-05-18T15:30:55.329Z,32.11
2023-05-18T15:32:58.070Z,32.04
2023-05-18T15:35:08.651Z,32.02
2023-05-18T15:37:12.455Z,32.61
2023-05-18T15:39:15.564Z,31.97
2023-05-18T15:41:19.714Z,32.47
2023-05-18T15:43:24.546Z,33.79
2023-05-18T15:45:29.082Z,33.42
2023-05-18T15:47:31.753Z,33.67
2023-05-18T15:49:43.244Z,33.91
2023-05-18T15:51:45.449Z,34.46
2023-05-18T15:53:48.162Z,34.21
2023-05-18T15:55:52.917Z,34.42
2023-05-18T15:57:55.843Z,34.36
2023-05-18T15:59:59.566Z,34.72
2023-05-18T16:02:02.729Z,34.32
2023-05-18T16:04:05.724Z,34.41
2023-05-18T16:06:07.952Z,34.54
2023-05-18T16:08:15.580Z,34.67
2023-05-18T16:10:20.729Z,33.60
2023-05-18T16:12:22.512Z,33.53
2023-05-18T16:14:24.242Z,33.76
2023-05-18T16:16:27.092Z,34.04
2023-05-18T16:18:29.418Z,34.11
2023-05-18T16:20:32.918Z,33.66
2023-05-18T16:22:38.217Z,34.13
2023-05-18T16:24:40.878Z,34.04
2023-05-18T16:26:52.143Z,33.76
2023-05-18T16:28:54.536Z,34.62
2023-05-18T16:30:57.393Z,34.25
2023-05-18T16:33:00.368Z,34.37
2023-05-18T16:35:02.694Z,35.03
2023-05-18T16:37:05.203Z,35.40
2023-05-18T16:39:08.376Z,35.29
2023-05-18T16:41:11.576Z,35.29
2023-05-18T16:43:14.110Z,35.84
2023-05-18T16:45:17.863Z,35.40
2023-05-18T16:47:21.237Z,36.09
2023-05-18T16:49:25.337Z,38.14
2023-05-18T16:51:36.860Z,38.21
2023-05-18T16:53:41.842Z,38.54
2023-05-18T16:55:58.454Z,39.80
2023-05-18T16:58:03.218Z,38.88
2023-05-18T17:00:13.793Z,38.44
2023-05-18T17:02:20.654Z,39.09
2023-05-18T17:04:24.954Z,39.93
2023-05-18T17:06:28.550Z,38.78
2023-05-18T17:08:33.225Z,39.47
2023-05-18T17:10:38.086Z,38.86
2023-05-18T17:12:43.986Z,39.74
2023-05-18T17:14:47.724Z,39.32
2023-05-18T17:16:53.122Z,39.65
2023-05-18T17:18:56.526Z,39.51
2023-05-18T17:20:58.750Z,39.33
2023-05-18T17:23:02.181Z,40.04
2023-05-18T17:25:06.546Z,39.54
2023-05-18T17:27:08.885Z,39.66
2023-05-18T17:29:12.075Z,39.67
2023-05-18T17:31:15.868Z,40.04
2023-05-18T17:33:19.556Z,40.35
2023-05-18T17:35:34.227Z,40.65
2023-05-18T17:37:38.121Z,41.06
2023-05-18T17:39:41.822Z,40.47
2023-05-18T17:41:45.485Z,40.73
2023-05-18T17:43:48.201Z,40.47
2023-05-18T17:45:50.961Z,41.03
2023-05-18T17:47:53.198Z,41.06
2023-05-18T17:49:55.832Z,40.76
2023-05-18T17:51:58.605Z,40.62
2023-05-18T17:54:00.884Z,41.14
2023-05-18T17:56:03.311Z,40.77
2023-05-18T17:58:06.157Z,41.13
2023-05-18T18:00:10.766Z,41.64
2023-05-18T18:02:14.510Z,41.21
2023-05-18T18:04:16.723Z,41.63
2023-05-18T18:06:22.718Z,42.03
2023-05-18T18:08:25.335Z,41.33
2023-05-18T18:10:27.554Z,40.90
2023-05-18T18:12:29.624Z,41.52
2023-05-18T18:14:31.665Z,41.37
2023-05-18T18:16:34.864Z,41.64
2023-05-18T18:18:37.344Z,41.55
2023-05-18T18:20:40.169Z,41.94
2023-05-18T18:22:47.631Z,42.29
2023-05-18T18:24:49.679Z,41.92
2023-05-18T18:26:52.830Z,42.27
2023-05-18T18:28:55.235Z,42.65
2023-05-18T18:30:57.930Z,42.92
2023-05-18T18:33:00.068Z,43.03
2023-05-18T18:35:02.188Z,43.18
2023-05-18T18:37:04.821Z,43.51
2023-05-18T18:39:06.830Z,43.76
2023-05-18T18:41:08.968Z,43.71
2023-05-18T18:43:11.274Z,44.09
2023-05-18T18:45:13.286Z,44.41
2023-05-18T18:47:15.557Z,44.31
2023-05-18T18:49:17.770Z,44.07
2023-05-18T18:51:19.877Z,44.35
2023-05-18T18:53:22.128Z,44.79
2023-05-18T18:55:24.579Z,44.77
2023-05-18T18:57:27.057Z,44.62
2023-05-18T18:59:29.112Z,44.64
2023-05-18T19:01:31.606Z,44.72
2023-05-18T19:03:34.661Z,44.78
2023-05-18T19:05:43.399Z,45.29
2023-05-18T19:07:45.352Z,45.34
2023-05-18T19:09:49.745Z,45.61
2023-05-18T19:11:51.815Z,45.63
2023-05-18T19:13:53.742Z,45.28
2023-05-18T19:15:56.119Z,45.84
2023-05-18T19:17:58.328Z,45.78
2023-05-18T19:20:00.524Z,45.57
2023-05-18T19:22:02.968Z,45.64
2023-05-18T19:24:07.540Z,45.58
2023-05-18T19:26:09.830Z,45.41
2023-05-18T19:28:11.874Z,45.28
2023-05-18T19:30:17.051Z,45.67
2023-05-18T19:32:19.112Z,45.65
2023-05-18T19:34:21.728Z,45.82
2023-05-18T19:36:23.693Z,46.49
2023-05-18T19:38:25.783Z,46.65
2023-05-18T19:40:29.122Z,46.58
2023-05-18T19:42:31.171Z,46.63
2023-05-18T19:44:33.115Z,46.12
2023-05-18T19:46:35.850Z,46.56
2023-05-18T19:48:37.905Z,46.15
2023-05-18T19:50:39.893Z,46.26
2023-05-18T19:52:41.926Z,46.85
2023-05-18T19:54:44.009Z,45.60
2023-05-18T19:56:46.358Z,46.50
2023-05-18T19:58:49.826Z,46.51
2023-05-18T20:00:52.853Z,46.36
2023-05-18T20:02:54.900Z,46.45
2023-05-18T20:04:56.879Z,46.42
2023-05-18T20:06:59.794Z,46.99
2023-05-18T20:09:01.949Z,46.72
2023-05-18T20:11:04.117Z,46.31
2023-05-18T20:13:06.062Z,47.26
2023-05-18T20:15:09.057Z,46.92
2023-05-18T20:17:11.100Z,47.07
2023-05-18T20:19:14.116Z,46.66
2023-05-18T20:21:18.605Z,46.70
2023-05-18T20:23:20.624Z,46.87
2023-05-18T20:25:23.685Z,46.71
2023-05-18T20:27:26.387Z,46.57
2023-05-18T20:29:28.442Z,47.04
2023-05-18T20:31:30.627Z,47.30
2023-05-18T20:33:34.449Z,46.90
2023-05-18T20:35:39.509Z,46.37
2023-05-18T20:37:41.722Z,46.74
2023-05-18T20:39:50.912Z,46.56
2023-05-18T20:41:53.900Z,46.56
2023-05-18T20:43:56.023Z,47.18
2023-05-18T20:45:58.785Z,46.70
2023-05-18T20:48:00.977Z,47.05
2023-05-18T20:50:04.148Z,46.86
2023-05-18T20:52:06.422Z,47.02
2023-05-18T20:54:08.509Z,47.25
2023-05-18T20:56:12.089Z,46.87
2023-05-18T20:58:18.770Z,47.56
2023-05-18T21:00:21.689Z,47.58
2023-05-18T21:02:23.854Z,47.07
2023-05-18T21:04:25.892Z,46.82
2023-05-18T21:06:28.003Z,46.93
2023-05-18T21:08:30.112Z,47.08
2023-05-18T21:10:32.409Z,47.50
2023-05-18T21:12:34.634Z,46.97
2023-05-18T21:14:36.613Z,47.26
2023-05-18T21:16:38.727Z,46.70
2023-05-18T21:18:40.929Z,46.22
2023-05-18T21:20:42.964Z,46.37
2023-05-18T21:22:44.925Z,47.13
2023-05-18T21:24:46.937Z,47.00
2023-05-18T21:26:48.968Z,47.05
2023-05-18T21:28:51.069Z,46.57
2023-05-18T21:30:54.416Z,46.64
2023-05-18T21:32:56.748Z,47.43
2023-05-18T21:34:58.755Z,47.21
2023-05-18T21:37:01.365Z,47.00
2023-05-18T21:39:05.663Z,47.33
2023-05-18T21:41:07.727Z,47.74
2023-05-18T21:43:09.613Z,47.86
2023-05-18T21:45:12.948Z,47.69
2023-05-18T21:47:14.874Z,47.35
2023-05-18T21:49:16.979Z,47.31
2023-05-18T21:51:19.035Z,47.11
2023-05-18T21:53:21.212Z,47.29
2023-05-18T21:55:23.142Z,47.56
2023-05-18T21:57:25.169Z,47.28
2023-05-18T21:59:27.196Z,47.25
2023-05-18T22:01:29.270Z,47.67
2023-05-18T22:03:31.232Z,47.39
2023-05-18T22:05:33.195Z,47.66
2023-05-18T22:07:35.249Z,47.52
2023-05-18T22:09:37.140Z,47.75
2023-05-18T22:11:39.037Z,47.06
2023-05-18T22:13:41.454Z,47.28
2023-05-18T22:15:43.702Z,47.24
2023-05-18T22:17:46.343Z,47.30
2023-05-18T22:19:49.033Z,47.41
2023-05-18T22:21:51.199Z,47.51
2023-05-18T22:23:53.175Z,47.51
2023-05-18T22:25:55.245Z,47.47
2023-05-18T22:27:57.351Z,47.84
2023-05-18T22:29:59.393Z,47.08
2023-05-18T22:32:01.402Z,47.45
2023-05-18T22:34:03.721Z,46.84
2023-05-18T22:36:06.459Z,47.44
2023-05-18T22:38:08.673Z,48.14
2023-05-18T22:40:11.422Z,47.86
2023-05-18T22:42:13.404Z,47.89
2023-05-18T22:44:15.324Z,48.56
2023-05-18T22:46:17.419Z,47.92
2023-05-18T22:48:19.393Z,47.71
2023-05-18T22:50:21.541Z,47.67
2023-05-18T22:52:23.638Z,47.54
2023-05-18T22:54:25.596Z,47.73
2023-05-18T22:56:27.692Z,47.74
2023-05-18T22:58:29.572Z,48.10
2023-05-18T23:00:31.618Z,48.04
2023-05-18T23:02:33.883Z,47.55
2023-05-18T23:04:36.191Z,48.08
2023-05-18T23:06:38.197Z,48.19
2023-05-18T23:08:40.058Z,47.68
2023-05-18T23:10:44.484Z,48.07
2023-05-18T23:12:48.446Z,47.78
2023-05-18T23:14:54.806Z,47.61
2023-05-18T23:16:58.430Z,47.74
2023-05-18T23:19:01.932Z,47.83
2023-05-18T23:21:04.482Z,47.83
2023-05-18T23:23:06.445Z,48.15
2023-05-18T23:25:09.982Z,48.38
2023-05-18T23:27:11.969Z,48.64
2023-05-18T23:29:13.981Z,48.44
2023-05-18T23:31:16.454Z,48.96
2023-05-18T23:33:18.791Z,48.80
2023-05-18T23:35:21.965Z,48.84
2023-05-18T23:37:26.166Z,49.04
2023-05-18T23:39:29.617Z,49.02
2023-05-18T23:41:32.158Z,48.85
2023-05-18T23:43:34.611Z,48.85
2023-05-18T23:45:36.922Z,49.19
2023-05-18T23:47:39.315Z,49.16
2023-05-18T23:49:42.130Z,49.20
2023-05-18T23:51:45.744Z,49.61
2023-05-18T23:53:50.071Z,49.35
2023-05-18T23:55:52.189Z,49.80
2023-05-18T23:57:55.607Z,49.68
2023-05-18T23:59:59.245Z,50.05
